Aviation Digital Data Service (ADDS)

Output produced by METARs form (0552 UTC 28 May 2016)
found at http://www.aviationweather.gov/adds/metars/
 
KFIG 280454Z AUTO 00000KT 10SM SCT060 19/16 A3011 RMK AO2 SLP186 T01890156 403000150
KFIG 280354Z AUTO 00000KT 10SM FEW055 19/16 A3011 RMK AO2 SLP187 T01940161
KFIG 280254Z AUTO 35004KT 10SM CLR 20/17 A3009 RMK AO2 SLP181 T02000167 53013
KFIG 280154Z AUTO 00000KT 10SM CLR 22/16 A3008 RMK AO2 SLP176 T02220161
KFIG 280054Z AUTO 24003KT 10SM CLR 24/16 A3007 RMK AO2 SLP171 T02440156
KFIG 272354Z AUTO 27004KT 10SM CLR 27/15 A3006 RMK AO2 SLP168 T02720150 10300 20272 53002
KFIG 272254Z AUTO 24005KT 10SM FEW060 28/16 A3004 RMK AO2 SLP164 T02830156
KFIG 272154Z AUTO 25007KT 10SM CLR 29/16 A3004 RMK AO2 SLP162 T02890156
KFIG 272054Z AUTO 25011G16KT 10SM CLR 29/16 A3005 RMK AO2 SLP166 T02940156 58007
KFIG 271954Z AUTO 22009KT 10SM FEW060 SCT070 28/16 A3006 RMK AO2 SLP169 T02830156
KFIG 271854Z AUTO 21011KT 10SM FEW060 SCT075 SCT110 29/16 A3007 RMK AO2 SLP171 T02890161
KFIG 271754Z AUTO 19009KT 10SM FEW049 28/17 A3007 RMK AO2 SLP173 T02830167 10289 20172 58005
KFIG 271654Z AUTO 23006KT 10SM FEW043 27/17 A3008 RMK AO2 SLP176 T02720167
KFIG 271554Z AUTO 20011G16KT 10SM CLR 26/17 A3009 RMK AO2 SLP178 T02610172
KFIG 271454Z AUTO 18006KT 10SM CLR 25/18 A3009 RMK AO2 SLP179 T02500178 58002
KFIG 271354Z AUTO 21008KT 10SM CLR 22/18 A3009 RMK AO2 SLP182 T02220178
KFIG 271254Z AUTO 00000KT 10SM FEW035 21/18 A3010 RMK AO2 SLP184 T02060178
KFIG 271154Z AUTO 00000KT 3SM BR FEW023 SCT028 BKN033 17/16 A3009 RMK AO2 SLP182 70007 T01720161 10178 20150 50006
KFIG 271147Z AUTO 19003KT 2 1/2SM BR FEW002 FEW023 OVC033 17/16 A3010 RMK AO2 T01720161
KFIG 271128Z AUTO 00000KT 1SM BR FEW002 SCT021 OVC036 17/16 A3010 RMK AO2 T01670161
KFIG 271117Z AUTO 00000KT 3/4SM BR FEW021 SCT028 BKN035 17/16 A3009 RMK AO2 T01720161
KFIG 271112Z AUTO 00000KT 2 1/2SM BR SCT021 BKN030 BKN035 17/16 A3010 RMK AO2 T01720161
KFIG 271105Z AUTO 00000KT 1SM BR BKN023 BKN029 OVC035 17/16 A3010 RMK AO2 T01670161
KFIG 271054Z AUTO 33003KT 1/4SM FG SCT004 BKN023 OVC035 16/15 A3010 RMK AO2 SLP184 T01610150
KFIG 271049Z AUTO 00000KT 3/4SM BR SCT005 OVC025 17/16 A3010 RMK AO2
KFIG 271046Z AUTO 00000KT 1SM BR BKN005 OVC023 17/16 A3010 RMK AO2 T01670156
KFIG 271043Z AUTO 29003KT 1/4SM FG BKN005 OVC023 17/16 A3010 RMK AO2 T01670156
KFIG 271019Z AUTO 35004KT 1/4SM FG VV004 15/14 A3008 RMK AO2 T01500139
KFIG 271010Z AUTO 00000KT 3/4SM BR VV005 15/14 A3008 RMK AO2 T01500139
KFIG 271003Z AUTO 00000KT 1/4SM FG VV005 15/14 A3008 RMK AO2 T01500139
KFIG 270954Z AUTO 00000KT 1/4SM FG VV004 15/14 A3008 RMK AO2 SLP176 T01500139
KFIG 270951Z AUTO 00000KT 1/2SM FG VV004 16/14 A3008 RMK AO2
KFIG 270942Z AUTO 00000KT 1SM BR CLR 16/15 A3008 RMK AO2 T01610150
KFIG 270937Z AUTO 00000KT 3/4SM BR VV005 16/15 A3008 RMK AO2 T01610150
KFIG 270933Z AUTO 00000KT 1SM BR VV003 16/15 A3008 RMK AO2 T01610150
KFIG 270925Z AUTO 00000KT 2 1/2SM BR FEW003 17/15 A3008 RMK AO2 T01670150
KFIG 270915Z AUTO 00000KT 1 1/2SM BR FEW003 16/15 A3008 RMK AO2 T01610150
KFIG 270907Z AUTO 00000KT 1SM BR VV003 16/15 A3008 RMK AO2 T01610150
KFIG 270854Z AUTO 20003KT 1 3/4SM BR CLR 16/15 A3008 RMK AO2 SLP176 T01610150 56005
KFIG 270814Z AUTO 25003KT 3SM BR FEW003 17/16 A3008 RMK AO2 T01670156
KFIG 270812Z AUTO 26003KT 1 1/2SM BR SCT003 17/16 A3008 RMK AO2 T01670156
KFIG 270810Z AUTO 00000KT 3/4SM BR VV003 17/16 A3008 RMK AO2 T01670156
KFIG 270754Z AUTO 00000KT 1/4SM FG BKN002 OVC055 16/15 A3008 RMK AO2 SLP177 T01610150
KFIG 270746Z AUTO 34003KT 1/4SM FG BKN002 OVC055 16/14 A3008 RMK AO2 T01610144
KFIG 270737Z AUTO 35003KT 1/4SM FG SCT002 OVC055 16/15 A3008 RMK AO2 T01610150
KFIG 270732Z AUTO 33004KT 1 1/4SM BR FEW004 OVC055 17/16 A3008 RMK AO2 T01720156
KFIG 270713Z AUTO 18003KT 4SM BR BKN055 17/16 A3008 RMK AO2 T01720161
KFIG 270654Z AUTO 00000KT 2 1/2SM BR CLR 17/16 A3008 RMK AO2 SLP176 T01720161
KFIG 270554Z AUTO 00000KT 7SM SCT060 BKN110 17/16 A3009 RMK AO2 SLP181 60007 T01720161 10244 20172 53008
KFIG 270518Z AUTO 00000KT 3SM BR SCT110 17/16 A3008 RMK AO2 T01720161
KFIG 270500Z AUTO 00000KT 1 3/4SM BR FEW110 18/16 A3008 RMK AO2 T01780161
KFIG 270454Z AUTO 00000KT 6SM BR SCT110 18/17 A3008 RMK AO2 SLP176 T01830167 402780139
KFIG 270354Z AUTO 30003KT 6SM BR FEW060 19/17 A3006 RMK AO2 RAB01E26 SLP171 P0007 T01940172
KFIG 270254Z AUTO 35005KT 10SM SCT047 BKN060 BKN075 19/16 A3007 RMK AO2 SLP173 T01940156 51012
KFIG 270154Z AUTO 00000KT 10SM CLR 20/16 A3006 RMK AO2 SLP172 T02000161
KFIG 270054Z AUTO 23004KT 10SM CLR 23/16 A3005 RMK AO2 SLP168 T02280161
KFIG 262354Z AUTO 19005KT 10SM CLR 24/16 A3003 RMK AO2 SLP161 T02440156 10278 20244 56007
KFIG 262254Z AUTO 20006KT 10SM CLR 26/15 A3004 RMK AO2 SLP163 T02560150
KFIG 262154Z AUTO 22009KT 10SM CLR 27/14 A3004 RMK AO2 SLP163 T02670144
KFIG 262054Z AUTO 23010KT 10SM CLR 27/15 A3005 RMK AO2 SLP169 T02720150 58008
KFIG 261954Z AUTO 23011G17KT 10SM SCT100 27/15 A3007 RMK AO2 SLP175 T02670150
KFIG 261854Z AUTO 23010G20KT 10SM SCT090 OVC110 26/15 A3008 RMK AO2 SLP180 T02610150
KFIG 261754Z AUTO 21010G16KT 190V250 10SM SCT055 SCT070 BKN110 28/14 A3008 RMK AO2 SLP176 T02780144 10278 20167 56014